Time;durP1;ratioP1;P1;durP2;ratioP2;P2;SDS_P1;SDS_P2;PMS_P1;PMS_P2;Temp;Humidity;BMP_temperature;BMP_pressure;BME280_temperature;BME280_humidity;BME280_pressure;Samples;Min_cycle;Max_cycle;Signal;HPM_P1;HPM_P2
2024/01/09 00:00:04;;;;;;;0.00;0.00;;;-0.30;64.90;;;;;;5070234;28;20202;-37
2024/01/09 00:02:33;;;;;;;0.00;0.00;;;-0.30;64.90;;;;;;5086589;28;20229;-37
2024/01/09 00:05:06;;;;;;;0.00;0.00;;;-0.30;64.90;;;;;;5086112;28;20253;-36
2024/01/09 00:07:35;;;;;;;0.00;0.00;;;-0.30;65.00;;;;;;5088291;28;20183;-37
2024/01/09 00:10:03;;;;;;;0.00;0.00;;;-0.30;65.00;;;;;;5086440;28;20230;-36
2024/01/09 00:12:30;;;;;;;0.00;0.00;;;-0.30;64.80;;;;;;5088151;28;20209;-36
2024/01/09 00:15:00;;;;;;;0.00;0.00;;;-0.30;64.80;;;;;;5088126;28;20727;-37
2024/01/09 00:17:29;;;;;;;0.00;0.00;;;-0.40;64.70;;;;;;5086095;28;20212;-37
2024/01/09 00:19:58;;;;;;;0.00;0.00;;;-0.40;64.50;;;;;;5087823;28;20269;-36
2024/01/09 00:22:28;;;;;;;0.00;0.00;;;-0.40;64.60;;;;;;5086005;28;20211;-37
2024/01/09 00:24:58;;;;;;;0.00;0.00;;;-0.40;64.60;;;;;;5088155;28;20733;-37
2024/01/09 00:27:25;;;;;;;0.00;0.00;;;-0.40;64.40;;;;;;5084515;28;20558;-36
2024/01/09 00:29:54;;;;;;;0.00;0.00;;;-0.40;64.60;;;;;;5089884;28;20649;-36
2024/01/09 00:32:22;;;;;;;0.00;0.00;;;-0.50;64.70;;;;;;5087354;28;20318;-36
2024/01/09 00:34:49;;;;;;;0.00;0.00;;;-0.50;64.50;;;;;;5087587;28;20690;-36
2024/01/09 00:37:16;;;;;;;0.00;0.00;;;-0.50;64.60;;;;;;5088999;28;20297;-37
2024/01/09 00:39:43;;;;;;;0.00;0.00;;;-0.50;64.60;;;;;;5071494;28;20210;-36
2024/01/09 00:42:10;;;;;;;0.00;0.00;;;-0.50;64.50;;;;;;5071432;28;20245;-36
2024/01/09 00:44:43;;;;;;;0.00;0.00;;;-0.50;64.60;;;;;;5089478;28;20211;-38
2024/01/09 00:47:15;;;;;;;0.00;0.00;;;-0.50;64.80;;;;;;5089065;28;20613;-36
2024/01/09 00:49:45;;;;;;;0.00;0.00;;;-0.60;64.60;;;;;;5087464;28;20191;-37
2024/01/09 00:52:13;;;;;;;0.00;0.00;;;-0.60;64.50;;;;;;5085771;28;20203;-36
2024/01/09 00:54:43;;;;;;;0.00;0.00;;;-0.60;64.70;;;;;;5086267;28;20194;-37
2024/01/09 00:57:11;;;;;;;0.00;0.00;;;-0.60;64.60;;;;;;5085776;28;20483;-36
2024/01/09 00:59:38;;;;;;;0.00;0.00;;;-0.60;64.60;;;;;;5087542;28;20576;-37
2024/01/09 01:02:05;;;;;;;0.00;0.00;;;-0.60;64.70;;;;;;5084972;28;20223;-37
2024/01/09 01:04:38;;;;;;;0.00;0.00;;;-0.60;64.70;;;;;;5071799;28;20227;-36
2024/01/09 01:07:06;;;;;;;0.00;0.00;;;-0.60;64.80;;;;;;5066265;28;20670;-36
2024/01/09 01:09:33;;;;;;;0.00;0.00;;;-0.60;64.70;;;;;;5065273;28;20195;-36
2024/01/09 01:12:03;;;;;;;0.00;0.00;;;-0.60;64.80;;;;;;5065095;28;20234;-38
2024/01/09 01:14:30;;;;;;;0.00;0.00;;;-0.70;64.60;;;;;;5066853;28;20196;-37
2024/01/09 01:16:59;;;;;;;0.00;0.00;;;-0.70;64.50;;;;;;5065446;28;20203;-37
2024/01/09 01:19:29;;;;;;;0.00;0.00;;;-0.70;64.60;;;;;;5047938;28;20204;-37
2024/01/09 01:21:56;;;;;;;0.00;0.00;;;-0.70;64.60;;;;;;5065394;28;20455;-37
2024/01/09 01:24:23;;;;;;;0.00;0.00;;;-0.70;64.50;;;;;;5067948;28;20231;-37
2024/01/09 01:26:51;;;;;;;0.00;0.00;;;-0.70;64.60;;;;;;5066811;28;20199;-38
2024/01/09 01:29:20;;;;;;;0.00;0.00;;;-0.70;64.50;;;;;;5067274;28;20211;-37
2024/01/09 01:31:50;;;;;;;0.00;0.00;;;-0.70;64.70;;;;;;5069162;28;20650;-38
2024/01/09 01:34:17;;;;;;;0.00;0.00;;;-0.70;64.80;;;;;;5065189;28;20318;-37
2024/01/09 01:36:47;;;;;;;0.00;0.00;;;-0.70;64.80;;;;;;5048138;28;20704;-36
2024/01/09 01:39:17;;;;;;;0.00;0.00;;;-0.70;64.60;;;;;;5031855;28;20290;-37
2024/01/09 01:41:49;;;;;;;0.00;0.00;;;-0.70;64.70;;;;;;5064798;28;20638;-38
2024/01/09 01:44:17;;;;;;;0.00;0.00;;;-0.70;64.60;;;;;;5066272;28;20713;-37
2024/01/09 01:46:46;;;;;;;0.00;0.00;;;-0.80;64.50;;;;;;5066230;28;20208;-37
2024/01/09 01:49:16;;;;;;;0.00;0.00;;;-0.70;64.50;;;;;;5065329;28;20238;-37
2024/01/09 01:51:49;;;;;;;0.00;0.00;;;-0.80;64.60;;;;;;5064344;28;20192;-36
2024/01/09 01:54:21;;;;;;;0.00;0.00;;;-0.80;64.60;;;;;;5066055;28;20290;-36
2024/01/09 01:56:50;;;;;;;0.00;0.00;;;-0.80;64.40;;;;;;5064604;28;20226;-37
2024/01/09 01:59:22;;;;;;;0.00;0.00;;;-0.80;64.40;;;;;;5066749;28;20200;-37
2024/01/09 02:01:54;;;;;;;0.00;0.00;;;-0.80;64.40;;;;;;5051113;28;20218;-37
2024/01/09 02:04:24;;;;;;;0.00;0.00;;;-0.80;64.40;;;;;;5064777;28;21058;-37
2024/01/09 02:06:52;;;;;;;0.00;0.00;;;-0.80;64.40;;;;;;5064985;28;20223;-37
2024/01/09 02:09:21;;;;;;;0.00;0.00;;;-0.80;64.30;;;;;;5063698;28;20230;-38
2024/01/09 02:11:49;;;;;;;0.00;0.00;;;-0.90;64.50;;;;;;5063628;28;20234;-38
2024/01/09 02:14:19;;;;;;;0.00;0.00;;;-0.80;64.60;;;;;;5065123;28;20210;-38
2024/01/09 02:16:47;;;;;;;0.00;0.00;;;-0.80;64.60;;;;;;5067861;28;20242;-37
2024/01/09 02:19:14;;;;;;;0.00;0.00;;;-0.80;64.60;;;;;;5064868;28;20203;-37
2024/01/09 02:21:44;;;;;;;0.00;0.00;;;-0.80;64.60;;;;;;5066262;28;20223;-36
2024/01/09 02:24:13;;;;;;;0.00;0.00;;;-0.80;65.50;;;;;;5065355;28;20245;-37
2024/01/09 02:26:48;;;;;;;0.00;0.00;;;-0.80;64.50;;;;;;5065337;28;20210;-37
2024/01/09 02:29:40;;;;;;;0.00;0.00;;;-0.80;64.40;;;;;;5065752;28;20204;-37
2024/01/09 02:32:07;;;;;;;0.00;0.00;;;-0.80;64.50;;;;;;5064903;28;20194;-36
2024/01/09 02:34:40;;;;;;;0.00;0.00;;;-0.90;64.40;;;;;;5047203;28;20742;-36
2024/01/09 02:37:07;;;;;;;0.00;0.00;;;-0.90;64.50;;;;;;5065150;28;20202;-37
2024/01/09 02:39:40;;;;;;;0.00;0.00;;;-0.90;64.50;;;;;;5065113;28;20220;-38
2024/01/09 02:42:08;;;;;;;0.00;0.00;;;-0.90;64.60;;;;;;5065108;28;20196;-37
2024/01/09 02:44:40;;;;;;;0.00;0.00;;;-0.90;64.70;;;;;;5063685;28;20227;-36
2024/01/09 02:47:10;;;;;;;0.00;0.00;;;-0.90;64.50;;;;;;5064768;28;20196;-37
2024/01/09 02:49:37;;;;;;;0.00;0.00;;;-0.80;64.60;;;;;;5064667;28;20208;-37
2024/01/09 02:52:09;;;;;;;0.00;0.00;;;-0.90;64.50;;;;;;5065014;28;20934;-37
2024/01/09 02:54:36;;;;;;;0.00;0.00;;;-0.80;64.60;;;;;;5065080;28;20203;-37
2024/01/09 02:57:06;;;;;;;0.00;0.00;;;-0.90;64.50;;;;;;5063340;28;20220;-38
2024/01/09 02:59:39;;;;;;;0.00;0.00;;;-0.90;64.50;;;;;;5063314;28;20207;-37
2024/01/09 03:02:06;;;;;;;0.00;0.00;;;-0.90;64.50;;;;;;5062815;28;20290;-38
2024/01/09 03:04:36;;;;;;;0.00;0.00;;;-0.90;64.20;;;;;;5062634;28;20541;-38
2024/01/09 03:07:03;;;;;;;0.00;0.00;;;-0.90;64.50;;;;;;5046019;28;20231;-37
2024/01/09 03:09:35;;;;;;;0.00;0.00;;;-0.90;64.40;;;;;;5062492;28;20204;-39
2024/01/09 03:12:03;;;;;;;0.00;0.00;;;-0.90;64.50;;;;;;5077414;28;20199;-37
2024/01/09 03:14:33;;;;;;;0.00;0.00;;;-0.90;64.50;;;;;;5068481;28;20214;-39
2024/01/09 03:17:00;;;;;;;0.00;0.00;;;-0.90;64.50;;;;;;5086555;28;20252;-37
2024/01/09 03:19:27;;;;;;;0.00;0.00;;;-0.90;64.50;;;;;;5067849;28;20253;-39
2024/01/09 03:21:54;;;;;;;0.00;0.00;;;-0.90;64.50;;;;;;5084800;28;20636;-37
2024/01/09 03:24:22;;;;;;;0.00;0.00;;;-0.90;64.40;;;;;;5068232;28;20227;-37
2024/01/09 03:26:51;;;;;;;0.00;0.00;;;-0.90;64.30;;;;;;5083470;28;20571;-37
2024/01/09 03:29:19;;;;;;;0.00;0.00;;;-1.00;64.30;;;;;;5087853;28;20199;-37
2024/01/09 03:31:46;;;;;;;0.00;0.00;;;-1.00;64.20;;;;;;5091330;28;20191;-38
2024/01/09 03:34:16;;;;;;;0.00;0.00;;;-1.00;64.20;;;;;;5089314;28;20219;-38
2024/01/09 03:36:46;;;;;;;0.00;0.00;;;-1.10;64.00;;;;;;5089714;28;20244;-37
2024/01/09 03:39:16;;;;;;;0.00;0.00;;;-1.10;64.20;;;;;;5091636;28;20226;-39
2024/01/09 03:41:43;;;;;;;0.00;0.00;;;-1.10;64.30;;;;;;5091510;28;20245;-37
2024/01/09 03:44:12;;;;;;;0.00;0.00;;;-1.10;64.20;;;;;;5091212;28;20241;-38
2024/01/09 03:46:42;;;;;;;0.00;0.00;;;-1.10;64.30;;;;;;5091421;28;20202;-37
2024/01/09 03:49:11;;;;;;;0.00;0.00;;;-1.10;64.30;;;;;;5073054;28;20210;-39
2024/01/09 03:51:43;;;;;;;0.00;0.00;;;-1.10;64.30;;;;;;5090982;28;20187;-37
2024/01/09 03:54:13;;;;;;;0.00;0.00;;;-1.10;64.30;;;;;;5091209;28;20565;-38
2024/01/09 03:56:40;;;;;;;0.00;0.00;;;-1.10;64.40;;;;;;5089487;28;20244;-39
2024/01/09 03:59:07;;;;;;;0.00;0.00;;;-1.10;64.00;;;;;;5091080;28;20251;-39
2024/01/09 04:01:38;;;;;;;0.00;0.00;;;-1.20;64.20;;;;;;5089471;28;20206;-38
2024/01/09 04:04:07;;;;;;;0.00;0.00;;;-1.20;64.30;;;;;;5084893;28;20711;-37
2024/01/09 04:06:43;;;;;;;0.00;0.00;;;-1.20;64.20;;;;;;5070765;28;20270;-38
2024/01/09 04:09:12;;;;;;;0.00;0.00;;;-1.20;64.20;;;;;;5072090;28;20206;-37
2024/01/09 04:11:46;;;;;;;0.00;0.00;;;-1.20;64.10;;;;;;5070954;28;20191;-39
2024/01/09 04:14:13;;;;;;;0.00;0.00;;;-1.20;64.20;;;;;;5070776;28;20222;-37
2024/01/09 04:16:48;;;;;;;0.00;0.00;;;-1.20;64.30;;;;;;5072465;28;20219;-37
2024/01/09 04:19:15;;;;;;;0.00;0.00;;;-1.30;64.20;;;;;;5069963;28;20250;-40
2024/01/09 04:21:44;;;;;;;0.00;0.00;;;-1.30;64.20;;;;;;5068703;28;20450;-39
2024/01/09 04:24:12;;;;;;;0.00;0.00;;;-1.30;64.10;;;;;;5068977;28;20231;-39
2024/01/09 04:26:39;;;;;;;0.00;0.00;;;-1.30;63.90;;;;;;5070687;28;20207;-40
2024/01/09 04:29:06;;;;;;;0.00;0.00;;;-1.30;64.00;;;;;;5069099;28;20265;-40
2024/01/09 04:31:36;;;;;;;0.00;0.00;;;-1.30;64.20;;;;;;5069174;28;20218;-41
2024/01/09 04:34:05;;;;;;;0.00;0.00;;;-1.30;64.20;;;;;;5068361;28;20283;-39
2024/01/09 04:36:35;;;;;;;0.00;0.00;;;-1.30;64.00;;;;;;5070524;28;20203;-39
2024/01/09 04:39:04;;;;;;;0.00;0.00;;;-1.40;63.90;;;;;;5068852;28;20685;-40
2024/01/09 04:41:38;;;;;;;0.00;0.00;;;-1.40;64.00;;;;;;5066582;28;20206;-39
2024/01/09 04:44:08;;;;;;;0.00;0.00;;;-1.40;64.00;;;;;;5067630;28;20725;-38
2024/01/09 04:46:35;;;;;;;0.00;0.00;;;-1.40;64.00;;;;;;5067355;28;20195;-39
2024/01/09 04:49:05;;;;;;;0.00;0.00;;;-1.40;64.20;;;;;;5049028;28;20310;-39
2024/01/09 04:51:35;;;;;;;0.00;0.00;;;-1.40;64.10;;;;;;5049481;28;20203;-39
2024/01/09 04:54:02;;;;;;;0.00;0.00;;;-1.40;64.10;;;;;;5067083;28;20208;-38
2024/01/09 04:56:29;;;;;;;0.00;0.00;;;-1.40;64.10;;;;;;5066980;28;20207;-38
2024/01/09 04:58:56;;;;;;;0.00;0.00;;;-1.40;64.20;;;;;;5067564;28;20328;-39
2024/01/09 05:01:26;;;;;;;0.00;0.00;;;-1.40;64.00;;;;;;5074318;28;20214;-39
2024/01/09 05:03:53;;;;;;;0.00;0.00;;;-1.40;64.30;;;;;;5067953;28;20620;-39
2024/01/09 05:06:21;;;;;;;0.00;0.00;;;-1.40;64.20;;;;;;5066541;28;20251;-39
2024/01/09 05:08:49;;;;;;;0.00;0.00;;;-1.40;64.10;;;;;;5068011;28;20697;-39
2024/01/09 05:11:16;;;;;;;0.00;0.00;;;-1.50;64.10;;;;;;5065124;28;20200;-37
2024/01/09 05:13:46;;;;;;;0.00;0.00;;;-1.50;64.10;;;;;;5065247;28;20212;-39
2024/01/09 05:16:14;;;;;;;0.00;0.00;;;-1.50;64.10;;;;;;5065296;28;20687;-40
2024/01/09 05:18:41;;;;;;;0.00;0.00;;;-1.50;64.10;;;;;;5066248;28;20338;-39
2024/01/09 05:21:09;;;;;;;0.00;0.00;;;-1.50;64.20;;;;;;5067824;28;20298;-39
2024/01/09 05:23:41;;;;;;;0.00;0.00;;;-1.50;64.10;;;;;;5068353;28;20227;-40
2024/01/09 05:26:09;;;;;;;0.00;0.00;;;-1.50;64.10;;;;;;5048691;28;20633;-39
2024/01/09 05:28:36;;;;;;;0.00;0.00;;;-1.50;64.00;;;;;;5066366;28;20990;-40
2024/01/09 05:31:06;;;;;;;0.00;0.00;;;-1.50;64.00;;;;;;5076510;28;20213;-39
2024/01/09 05:33:35;;;;;;;0.00;0.00;;;-1.50;64.80;;;;;;5083730;28;20700;-38
2024/01/09 05:36:06;;;;;;;0.00;0.00;;;-1.50;63.80;;;;;;5084650;28;20325;-38
2024/01/09 05:38:36;;;;;;;0.00;0.00;;;-1.50;63.90;;;;;;5084704;28;20561;-39
2024/01/09 05:41:03;;;;;;;0.00;0.00;;;-1.50;64.00;;;;;;5085054;28;20814;-37
2024/01/09 05:43:33;;;;;;;0.00;0.00;;;-1.60;63.90;;;;;;5068144;28;20206;-38
2024/01/09 05:46:01;;;;;;;0.00;0.00;;;-1.60;64.00;;;;;;5068754;28;20352;-38
2024/01/09 05:48:28;;;;;;;0.00;0.00;;;-1.50;64.00;;;;;;5083655;28;20215;-37
2024/01/09 05:50:55;;;;;;;0.00;0.00;;;-1.60;64.00;;;;;;5083691;28;20183;-37
2024/01/09 05:53:23;;;;;;;0.00;0.00;;;-1.60;63.80;;;;;;5080433;28;20430;-37
2024/01/09 05:55:52;;;;;;;0.00;0.00;;;-1.60;63.90;;;;;;5087761;28;20222;-38
2024/01/09 05:58:19;;;;;;;0.00;0.00;;;-1.60;63.90;;;;;;5083033;28;20215;-38
2024/01/09 06:00:49;;;;;;;0.00;0.00;;;-1.60;64.00;;;;;;5074748;28;20197;-37
2024/01/09 06:03:16;;;;;;;0.00;0.00;;;-1.60;64.00;;;;;;5068956;28;20235;-39
2024/01/09 06:05:43;;;;;;;0.00;0.00;;;-1.60;63.90;;;;;;5065914;28;20713;-37
2024/01/09 06:08:11;;;;;;;0.00;0.00;;;-1.60;63.90;;;;;;5079282;28;20763;-38
2024/01/09 06:10:45;;;;;;;0.00;0.00;;;-1.60;63.90;;;;;;5064052;28;20223;-37
2024/01/09 06:13:12;;;;;;;0.00;0.00;;;-1.60;63.90;;;;;;5081305;28;20623;-38
2024/01/09 06:15:42;;;;;;;0.00;0.00;;;-1.60;64.10;;;;;;5082716;28;20265;-38
2024/01/09 06:18:09;;;;;;;0.00;0.00;;;-1.60;64.80;;;;;;5080187;28;20207;-38
2024/01/09 06:20:38;;;;;;;0.00;0.00;;;-1.60;64.10;;;;;;5081266;28;20203;-38
2024/01/09 06:23:06;;;;;;;0.00;0.00;;;-1.60;64.00;;;;;;5083790;28;20198;-38
2024/01/09 06:25:33;;;;;;;0.00;0.00;;;-1.60;64.00;;;;;;5083721;28;20225;-39
2024/01/09 06:28:00;;;;;;;0.00;0.00;;;-1.60;64.00;;;;;;5085385;28;20206;-38
2024/01/09 06:30:28;;;;;;;0.00;0.00;;;-1.60;64.00;;;;;;5080951;28;20214;-39
2024/01/09 06:32:55;;;;;;;0.00;0.00;;;-1.60;64.10;;;;;;5073995;28;20316;-37
2024/01/09 06:35:22;;;;;;;0.00;0.00;;;-1.60;64.00;;;;;;5064035;28;20729;-38
2024/01/09 06:37:50;;;;;;;0.00;0.00;;;-1.60;64.10;;;;;;5063574;28;20204;-39
2024/01/09 06:40:19;;;;;;;0.00;0.00;;;-1.60;64.00;;;;;;5064646;28;20203;-39
2024/01/09 06:42:50;;;;;;;0.00;0.00;;;-1.60;64.00;;;;;;5077619;28;20219;-38
2024/01/09 06:45:20;;;;;;;0.00;0.00;;;-1.60;64.00;;;;;;5073586;28;20469;-38
2024/01/09 06:47:49;;;;;;;0.00;0.00;;;-1.60;63.90;;;;;;5066272;28;20615;-37
2024/01/09 06:50:19;;;;;;;0.00;0.00;;;-1.60;64.00;;;;;;5067714;28;20230;-38
2024/01/09 06:53:00;;;;;;;0.00;0.00;;;-1.60;63.90;;;;;;5076336;28;20685;-38
2024/01/09 06:55:28;;;;;;;0.00;0.00;;;-1.70;63.90;;;;;;5048718;28;20206;-37
2024/01/09 06:57:57;;;;;;;0.00;0.00;;;-1.70;63.90;;;;;;5066192;28;20199;-38
2024/01/09 07:00:27;;;;;;;0.00;0.00;;;-1.70;63.90;;;;;;5071355;28;20759;-37
2024/01/09 07:02:59;;;;;;;0.00;0.00;;;-1.70;63.90;;;;;;5078768;28;20246;-37
2024/01/09 07:05:26;;;;;;;0.00;0.00;;;-1.70;63.90;;;;;;5058745;28;20721;-37
2024/01/09 07:07:53;;;;;;;0.00;0.00;;;-1.70;63.90;;;;;;5079354;28;20214;-37
2024/01/09 07:10:21;;;;;;;0.00;0.00;;;-1.70;63.80;;;;;;5081568;28;20218;-38
2024/01/09 07:12:48;;;;;;;0.00;0.00;;;-1.70;63.70;;;;;;5078509;28;20694;-38
2024/01/09 07:15:18;;;;;;;0.00;0.00;;;-1.70;63.70;;;;;;5083382;28;20582;-38
2024/01/09 07:17:48;;;;;;;0.00;0.00;;;-1.80;63.70;;;;;;5063864;28;20203;-38
2024/01/09 07:20:16;;;;;;;0.00;0.00;;;-1.80;63.70;;;;;;5076978;28;20322;-37
2024/01/09 07:22:46;;;;;;;0.00;0.00;;;-1.80;63.70;;;;;;5076668;28;20199;-38
2024/01/09 07:25:17;;;;;;;0.00;0.00;;;-1.80;63.70;;;;;;5078328;28;20221;-39
2024/01/09 07:27:44;;;;;;;0.00;0.00;;;-1.80;63.70;;;;;;5073128;28;20285;-39
2024/01/09 07:30:17;;;;;;;0.00;0.00;;;-1.80;63.80;;;;;;5081075;28;20286;-37
2024/01/09 07:32:44;;;;;;;0.00;0.00;;;-1.80;63.80;;;;;;5084830;28;20210;-39
2024/01/09 07:35:11;;;;;;;0.00;0.00;;;-1.90;63.80;;;;;;5075477;28;20203;-37
2024/01/09 07:37:42;;;;;;;0.00;0.00;;;-1.90;63.70;;;;;;5065492;28;20215;-38
2024/01/09 07:40:12;;;;;;;0.00;0.00;;;-1.90;63.90;;;;;;5081330;28;20221;-39
2024/01/09 07:42:39;;;;;;;0.00;0.00;;;-1.90;63.70;;;;;;5083007;28;20195;-37
2024/01/09 07:45:21;;;;;;;0.00;0.00;;;-1.90;63.60;;;;;;5069065;28;20211;-37
2024/01/09 07:47:50;;;;;;;0.00;0.00;;;-1.90;63.70;;;;;;5081526;28;20198;-37
2024/01/09 07:50:18;;;;;;;0.00;0.00;;;-1.90;63.70;;;;;;5080152;28;20568;-38
2024/01/09 07:52:46;;;;;;;0.00;0.00;;;-1.90;63.70;;;;;;5078574;28;20205;-38
2024/01/09 07:55:14;;;;;;;0.00;0.00;;;-2.00;63.70;;;;;;5082103;28;20214;-38
2024/01/09 07:57:43;;;;;;;0.00;0.00;;;-2.00;63.70;;;;;;5081631;28;20211;-38
2024/01/09 08:00:13;;;;;;;0.00;0.00;;;-2.00;63.50;;;;;;5085849;28;20195;-38
2024/01/09 08:02:40;;;;;;;0.00;0.00;;;-2.00;63.60;;;;;;5077910;28;20226;-38
2024/01/09 08:05:08;;;;;;;0.00;0.00;;;-2.00;63.70;;;;;;5084814;28;20337;-38
2024/01/09 08:07:38;;;;;;;0.00;0.00;;;-2.00;63.60;;;;;;5080261;28;20302;-39
2024/01/09 08:10:08;;;;;;;0.00;0.00;;;-2.00;63.60;;;;;;5077839;28;20294;-38
2024/01/09 08:12:37;;;;;;;0.00;0.00;;;-2.10;63.50;;;;;;5083681;28;20207;-38
2024/01/09 08:15:05;;;;;;;0.00;0.00;;;-2.00;63.70;;;;;;5084598;28;20210;-40
2024/01/09 08:17:32;;;;;;;0.00;0.00;;;-2.10;63.60;;;;;;5083259;28;20687;-39
2024/01/09 08:20:03;;;;;;;0.00;0.00;;;-2.00;63.80;;;;;;5085004;28;20213;-39
2024/01/09 08:22:30;;;;;;;0.00;0.00;;;-2.00;63.80;;;;;;5069085;28;20213;-39
2024/01/09 08:24:59;;;;;;;0.00;0.00;;;-2.00;63.80;;;;;;5087372;28;20230;-38
2024/01/09 08:27:26;;;;;;;0.00;0.00;;;-2.00;63.80;;;;;;5078357;28;20328;-38
2024/01/09 08:29:56;;;;;;;0.00;0.00;;;-2.00;63.70;;;;;;5077687;28;20648;-39
2024/01/09 08:32:23;;;;;;;0.00;0.00;;;-2.00;63.80;;;;;;5085035;28;20325;-39
2024/01/09 08:34:51;;;;;;;0.00;0.00;;;-2.00;63.70;;;;;;5067292;28;20289;-38
2024/01/09 08:37:20;;;;;;;0.00;0.00;;;-2.00;63.70;;;;;;5073957;28;20203;-37
2024/01/09 08:39:50;;;;;;;0.00;0.00;;;-2.00;63.40;;;;;;5084837;28;20532;-38
2024/01/09 08:42:19;;;;;;;0.00;0.00;;;-2.00;63.70;;;;;;5083607;28;20210;-40
2024/01/09 08:44:49;;;;;;;0.00;0.00;;;-2.00;63.70;;;;;;5082479;28;20696;-39
2024/01/09 08:47:21;;;;;;;0.00;0.00;;;-2.00;63.70;;;;;;5083680;28;20219;-38
2024/01/09 08:49:51;;;;;;;0.00;0.00;;;-2.00;63.70;;;;;;5084549;28;20249;-37
2024/01/09 08:52:24;;;;;;;0.00;0.00;;;-1.90;63.80;;;;;;5082706;28;20222;-37
2024/01/09 08:54:54;;;;;;;0.00;0.00;;;-2.00;63.60;;;;;;5081654;28;20297;-37
2024/01/09 08:57:21;;;;;;;0.00;0.00;;;-1.90;63.60;;;;;;5072328;28;20612;-38
2024/01/09 08:59:48;;;;;;;0.00;0.00;;;-1.90;63.80;;;;;;5063126;28;20700;-37
2024/01/09 09:02:18;;;;;;;0.00;0.00;;;-1.90;63.80;;;;;;5080177;28;20198;-37
2024/01/09 09:04:46;;;;;;;0.00;0.00;;;-1.90;63.90;;;;;;5087109;28;20215;-37
2024/01/09 09:07:14;;;;;;;0.00;0.00;;;-1.90;63.90;;;;;;5084486;28;20237;-38
2024/01/09 09:09:42;;;;;;;0.00;0.00;;;-1.90;63.90;;;;;;5086907;28;20649;-38
2024/01/09 09:12:10;;;;;;;0.00;0.00;;;-1.90;63.90;;;;;;5054397;28;20203;-39
2024/01/09 09:14:42;;;;;;;0.00;0.00;;;-1.80;64.00;;;;;;5082367;28;20685;-39
2024/01/09 09:17:14;;;;;;;0.00;0.00;;;-1.80;64.00;;;;;;5083287;28;20227;-37
2024/01/09 09:19:44;;;;;;;0.00;0.00;;;-1.80;63.70;;;;;;5085473;28;20297;-39
2024/01/09 09:22:12;;;;;;;0.00;0.00;;;-1.80;63.80;;;;;;5087894;28;21042;-38
2024/01/09 09:24:42;;;;;;;0.00;0.00;;;-1.80;63.90;;;;;;5088288;28;20256;-39
2024/01/09 09:27:09;;;;;;;0.00;0.00;;;-1.80;63.80;;;;;;5064593;28;20577;-37
2024/01/09 09:29:36;;;;;;;0.00;0.00;;;-1.70;64.00;;;;;;5074061;28;20802;-37
2024/01/09 09:32:06;;;;;;;0.00;0.00;;;-1.70;63.90;;;;;;5079845;28;20592;-38
2024/01/09 09:34:37;;;;;;;0.00;0.00;;;-1.70;64.00;;;;;;5085965;28;20695;-37
2024/01/09 09:37:13;;;;;;;0.00;0.00;;;-1.60;64.10;;;;;;5085047;28;20217;-38
2024/01/09 09:39:40;;;;;;;0.00;0.00;;;-1.60;64.00;;;;;;5084644;28;20218;-38
2024/01/09 09:42:10;;;;;;;0.00;0.00;;;-1.60;63.70;;;;;;5086294;28;20703;-38
2024/01/09 09:44:43;;;;;;;0.00;0.00;;;-1.60;63.70;;;;;;5085639;28;20207;-37
2024/01/09 09:47:11;;;;;;;0.00;0.00;;;-1.60;63.70;;;;;;5081226;28;20218;-39
2024/01/09 09:49:42;;;;;;;0.00;0.00;;;-1.60;63.90;;;;;;5049180;28;20708;-38
2024/01/09 09:52:10;;;;;;;0.00;0.00;;;-1.50;64.10;;;;;;5081821;28;20202;-37
2024/01/09 09:54:41;;;;;;;0.00;0.00;;;-1.50;64.10;;;;;;5084300;28;20734;-37
2024/01/09 09:57:14;;;;;;;0.00;0.00;;;-1.50;63.90;;;;;;5085534;28;20206;-38
2024/01/09 09:59:41;;;;;;;0.00;0.00;;;-1.40;64.00;;;;;;5087046;28;20234;-38
2024/01/09 10:02:24;;;;;;;0.00;0.00;;;-1.40;64.00;;;;;;5085680;28;20206;-38
2024/01/09 10:05:00;;;;;;;0.00;0.00;;;-1.40;64.00;;;;;;5085039;28;20589;-38
2024/01/09 10:07:31;;;;;;;0.00;0.00;;;-1.40;63.60;;;;;;5094809;28;20558;-39
2024/01/09 10:10:01;;;;;;;0.00;0.00;;;-1.40;63.80;;;;;;5084194;28;20248;-39
2024/01/09 10:12:29;;;;;;;0.00;0.00;;;-1.40;63.90;;;;;;5081026;28;20211;-39
2024/01/09 10:15:12;;;;;;;0.00;0.00;;;-1.30;64.10;;;;;;5069618;28;20211;-38
2024/01/09 10:17:43;;;;;;;0.00;0.00;;;-1.30;64.10;;;;;;5072880;28;20293;-37
2024/01/09 10:20:15;;;;;;;0.00;0.00;;;-1.20;64.10;;;;;;5079416;28;20219;-37
2024/01/09 10:22:45;;;;;;;0.00;0.00;;;-1.20;64.30;;;;;;5085406;28;20645;-37
2024/01/09 10:25:18;;;;;;;0.00;0.00;;;-1.20;63.90;;;;;;5084563;28;20210;-38
2024/01/09 10:27:48;;;;;;;0.00;0.00;;;-1.10;64.00;;;;;;5086038;28;20311;-37
2024/01/09 10:30:16;;;;;;;0.00;0.00;;;-1.10;64.00;;;;;;5079943;28;20672;-37
2024/01/09 10:32:43;;;;;;;0.00;0.00;;;-1.10;63.70;;;;;;5083376;28;20310;-38
2024/01/09 10:35:12;;;;;;;0.00;0.00;;;-1.10;63.90;;;;;;5082800;28;20235;-38
2024/01/09 10:37:40;;;;;;;0.00;0.00;;;-1.00;64.10;;;;;;5082832;28;20340;-38
2024/01/09 10:40:11;;;;;;;0.00;0.00;;;-1.00;63.40;;;;;;5080064;28;20202;-38
2024/01/09 10:42:45;;;;;;;0.00;0.00;;;-0.90;64.20;;;;;;5073489;28;20295;-37
2024/01/09 10:45:15;;;;;;;0.00;0.00;;;-0.90;64.10;;;;;;5078016;28;20221;-37
2024/01/09 10:47:43;;;;;;;0.00;0.00;;;-0.80;64.20;;;;;;5066166;28;20318;-37
2024/01/09 10:50:11;;;;;;;0.00;0.00;;;-0.80;64.00;;;;;;5071605;28;20201;-38
2024/01/09 10:52:40;;;;;;;0.00;0.00;;;-0.80;64.20;;;;;;5083377;28;20247;-37
2024/01/09 10:55:09;;;;;;;0.00;0.00;;;-0.70;63.90;;;;;;5080552;28;20202;-37
2024/01/09 10:57:39;;;;;;;0.00;0.00;;;-0.70;64.20;;;;;;5076668;28;20213;-37
2024/01/09 11:00:08;;;;;;;0.00;0.00;;;-0.70;64.20;;;;;;5081615;28;20203;-37
2024/01/09 11:02:38;;;;;;;0.00;0.00;;;-0.60;64.00;;;;;;5076489;28;20203;-37
2024/01/09 11:05:10;;;;;;;0.00;0.00;;;-0.60;63.90;;;;;;5077729;28;20214;-37
2024/01/09 11:07:44;;;;;;;0.00;0.00;;;-0.60;64.00;;;;;;5084411;28;20231;-36
2024/01/09 11:10:19;;;;;;;0.00;0.00;;;-0.60;64.10;;;;;;5069139;28;20211;-37
2024/01/09 11:12:54;;;;;;;0.00;0.00;;;-0.60;64.10;;;;;;5061895;28;20222;-37
2024/01/09 11:15:36;;;;;;;0.00;0.00;;;-0.60;64.10;;;;;;5078188;28;20255;-37
2024/01/09 11:18:10;;;;;;;0.00;0.00;;;-0.50;64.10;;;;;;5077328;28;20661;-38
2024/01/09 11:20:38;;;;;;;0.00;0.00;;;-0.50;64.20;;;;;;5078686;28;20294;-36
2024/01/09 11:23:05;;;;;;;0.00;0.00;;;-0.40;64.20;;;;;;5077611;28;20200;-36
2024/01/09 11:25:35;;;;;;;0.00;0.00;;;-0.40;64.30;;;;;;5068411;28;20752;-37
2024/01/09 11:28:03;;;;;;;0.00;0.00;;;-0.40;64.00;;;;;;5078428;28;20691;-37
2024/01/09 11:30:33;;;;;;;0.00;0.00;;;-0.30;64.30;;;;;;5075921;28;20689;-38
2024/01/09 11:33:29;;;;;;;0.00;0.00;;;-0.30;64.30;;;;;;5079384;28;20213;-27
2024/01/09 11:36:04;;;;;;;0.00;0.00;;;-0.20;63.90;;;;;;5080938;28;20258;-27
2024/01/09 11:38:34;;;;;;;0.00;0.00;;;-0.20;63.90;;;;;;5081525;28;20309;-27
2024/01/09 11:41:09;;;;;;;0.00;0.00;;;-0.20;63.80;;;;;;5079380;28;20201;-27
2024/01/09 11:44:03;;;;;;;0.00;0.00;;;-0.10;63.60;;;;;;5077003;28;20290;-27
2024/01/09 11:46:37;;;;;;;0.00;0.00;;;-0.10;64.00;;;;;;5078223;28;20276;-37
2024/01/09 11:49:09;;;;;;;0.00;0.00;;;-0.10;64.20;;;;;;5068446;28;20194;-37
2024/01/09 11:51:38;;;;;;;0.00;0.00;;;0.00;64.20;;;;;;5084144;28;21004;-38
2024/01/09 11:54:08;;;;;;;0.00;0.00;;;0.00;64.20;;;;;;5068404;28;20211;-38
2024/01/09 11:56:37;;;;;;;0.00;0.00;;;0.10;64.40;;;;;;5056019;28;20260;-38
2024/01/09 11:59:07;;;;;;;0.00;0.00;;;0.10;64.30;;;;;;5076437;28;20260;-37
2024/01/09 12:01:37;;;;;;;0.00;0.00;;;0.20;64.20;;;;;;5082870;28;20287;-37
2024/01/09 12:04:04;;;;;;;0.00;0.00;;;0.20;64.20;;;;;;5079870;28;20836;-38
2024/01/09 12:06:32;;;;;;;0.00;0.00;;;0.30;64.40;;;;;;5076934;28;20261;-38
2024/01/09 12:09:02;;;;;;;0.00;0.00;;;0.30;64.40;;;;;;5086916;28;20195;-38
2024/01/09 12:11:30;;;;;;;0.00;0.00;;;0.40;64.50;;;;;;5088764;28;20207;-37
2024/01/09 12:14:04;;;;;;;0.00;0.00;;;0.40;64.50;;;;;;5089984;28;20314;-36
2024/01/09 12:16:31;;;;;;;0.00;0.00;;;0.40;64.40;;;;;;5079239;28;20203;-37
2024/01/09 12:19:04;;;;;;;0.00;0.00;;;0.50;64.40;;;;;;5082679;28;20223;-37
2024/01/09 12:21:35;;;;;;;0.00;0.00;;;0.50;64.10;;;;;;5079725;28;20301;-38
2024/01/09 12:24:11;;;;;;;0.00;0.00;;;0.60;64.30;;;;;;5076055;28;20207;-27
2024/01/09 12:26:52;;;;;;;0.00;0.00;;;0.60;64.40;;;;;;5082938;28;20211;-27
2024/01/09 12:29:20;;;;;;;0.00;0.00;;;0.60;64.50;;;;;;5082508;28;20956;-27
2024/01/09 12:31:53;;;;;;;0.00;0.00;;;0.70;64.10;;;;;;5085629;28;20202;-27
2024/01/09 12:34:22;;;;;;;0.00;0.00;;;0.70;64.30;;;;;;5081738;28;20268;-27
2024/01/09 12:36:50;;;;;;;0.00;0.00;;;0.70;64.30;;;;;;5069445;28;20549;-27
2024/01/09 12:39:19;;;;;;;0.00;0.00;;;0.80;64.30;;;;;;5069255;28;20207;-27
2024/01/09 12:41:47;;;;;;;0.00;0.00;;;0.80;64.30;;;;;;5081249;28;20684;-27
2024/01/09 12:44:17;;;;;;;0.00;0.00;;;0.80;64.40;;;;;;5084411;28;20331;-27
2024/01/09 12:46:45;;;;;;;0.00;0.00;;;0.90;64.50;;;;;;5077109;28;20754;-27
2024/01/09 12:49:15;;;;;;;0.00;0.00;;;0.90;64.30;;;;;;5080966;28;20295;-27
2024/01/09 12:51:42;;;;;;;0.00;0.00;;;1.00;64.60;;;;;;5076459;28;20594;-27
2024/01/09 12:54:23;;;;;;;0.00;0.00;;;1.00;63.70;;;;;;5084364;28;20191;-27
2024/01/09 12:56:51;;;;;;;0.00;0.00;;;1.00;64.30;;;;;;5067656;28;20789;-27
2024/01/09 12:59:22;;;;;;;0.00;0.00;;;1.10;64.40;;;;;;5070497;28;20203;-28